Climax, North Carolina
Current Conditions -  °F | °C
As of 6:54 PM on Thursday 27 Nov 2014 (Local Time) from KBUY Reporting Station
Overcast Overcast  
Wind Chill: 35°   Ceiling: 5000
Heat Index: 41°   Visibility: 10mi
Dew Point: 25°   Wind: 9mph
Humidity: 53%   Direction: 270°W
Pressure: 30.2"   Gusts: NA
Location:  35.91°N, 79.72°W
Report Text: KBUY 272354Z AUTO 27008KT 10SM BKN050 OVC060 05/M04 A3020 RMK AO2 SLP228 60000 T00501039 10089 20050 51033
Loading
Personal Weather Stations






























Interactive Weather Map New forecast layout! Learn more

10-Day Weather Forecast

Advertisements
Track Severe Weather on mobile